createdAt,value
2023-05-02T00:00:41.225Z,10.68
2023-05-02T00:03:38.126Z,21.05
2023-05-02T00:06:35.439Z,10.90
2023-05-02T00:09:32.320Z,12.45
2023-05-02T00:12:29.212Z,10.23
2023-05-02T00:15:27.518Z,8.63
2023-05-02T00:18:24.502Z,8.32
2023-05-02T00:21:21.338Z,13.02
2023-05-02T00:24:18.780Z,12.80
2023-05-02T00:27:15.798Z,9.30
2023-05-02T00:30:13.937Z,11.50
2023-05-02T00:33:12.481Z,10.40
2023-05-02T00:36:17.216Z,9.45
2023-05-02T00:39:14.062Z,7.78
2023-05-02T00:42:11.103Z,9.65
2023-05-02T00:45:08.637Z,9.60
2023-05-02T00:48:06.043Z,8.50
2023-05-02T00:51:06.325Z,7.38
2023-05-02T00:54:04.151Z,10.05
2023-05-02T00:57:01.057Z,8.70
2023-05-02T00:59:58.582Z,10.88
2023-05-02T01:03:17.829Z,10.05
2023-05-02T01:06:48.698Z,8.45
2023-05-02T01:10:19.472Z,10.32
2023-05-02T01:13:31.938Z,8.10
2023-05-02T01:16:29.860Z,8.20
2023-05-02T01:19:34.200Z,8.32
2023-05-02T01:22:32.522Z,8.93
2023-05-02T01:26:00.496Z,10.57
2023-05-02T01:29:08.393Z,10.13
2023-05-02T01:32:08.146Z,7.68
2023-05-02T01:35:06.799Z,7.75
2023-05-02T01:38:05.919Z,9.02
2023-05-02T01:41:05.377Z,8.25
2023-05-02T01:44:03.298Z,10.45
2023-05-02T01:47:03.457Z,10.20
2023-05-02T01:50:01.687Z,7.68
2023-05-02T01:52:59.051Z,7.85
2023-05-02T01:55:58.195Z,8.75
2023-05-02T01:58:57.164Z,8.82
2023-05-02T02:01:56.230Z,9.75
2023-05-02T02:04:56.141Z,8.93
2023-05-02T02:07:53.053Z,10.93
2023-05-02T02:11:00.120Z,8.68
2023-05-02T02:14:11.229Z,8.82
2023-05-02T02:17:45.083Z,8.75
2023-05-02T02:20:45.188Z,8.00
2023-05-02T02:23:47.266Z,8.18
2023-05-02T02:26:44.379Z,8.25
2023-05-02T02:29:41.224Z,10.00
2023-05-02T02:32:38.064Z,10.20
2023-05-02T02:35:41.841Z,8.50
2023-05-02T02:39:20.194Z,12.23
2023-05-02T02:43:01.116Z,10.82
2023-05-02T02:46:20.295Z,11.38
2023-05-02T02:49:47.480Z,9.50
2023-05-02T02:53:05.577Z,8.75
2023-05-02T02:56:13.325Z,10.55
2023-05-02T02:59:23.631Z,8.32
2023-05-02T03:02:27.282Z,8.95
2023-05-02T03:05:24.511Z,11.30
2023-05-02T03:08:21.326Z,9.73
2023-05-02T03:11:18.203Z,10.68
2023-05-02T03:14:15.027Z,9.88
2023-05-02T03:17:11.903Z,9.65
2023-05-02T03:20:09.025Z,9.77
2023-05-02T03:23:05.819Z,11.93
2023-05-02T03:26:03.004Z,10.40
2023-05-02T03:28:59.838Z,10.13
2023-05-02T03:31:56.675Z,10.95
2023-05-02T03:34:58.359Z,11.23
2023-05-02T03:37:55.158Z,10.63
2023-05-02T03:40:51.995Z,9.63
2023-05-02T03:43:48.812Z,11.20
2023-05-02T03:46:47.111Z,11.50
2023-05-02T03:49:43.939Z,10.20
2023-05-02T03:52:40.764Z,9.93
2023-05-02T03:55:41.156Z,9.40
2023-05-02T03:58:37.944Z,11.50
2023-05-02T04:01:34.782Z,11.60
2023-05-02T04:04:32.846Z,9.85
2023-05-02T04:07:29.820Z,15.32
2023-05-02T04:10:27.080Z,18.00
2023-05-02T04:13:24.136Z,13.73
2023-05-02T04:16:21.135Z,11.18
2023-05-02T04:19:19.647Z,14.52
2023-05-02T04:22:16.470Z,14.85
2023-05-02T04:25:13.295Z,19.90
2023-05-02T04:28:10.401Z,17.45
2023-05-02T04:31:07.489Z,15.93
2023-05-02T04:34:04.373Z,14.32
2023-05-02T04:37:01.901Z,13.82
2023-05-02T04:39:58.860Z,17.30
2023-05-02T04:42:55.785Z,29.00
2023-05-02T04:45:55.161Z,15.88
2023-05-02T04:48:52.135Z,14.85
2023-05-02T04:51:49.512Z,15.65
2023-05-02T04:54:46.410Z,16.95
2023-05-02T04:57:43.225Z,17.05
2023-05-02T05:00:40.035Z,15.43
2023-05-02T05:03:37.191Z,14.82
2023-05-02T05:06:34.174Z,17.92
2023-05-02T05:09:31.055Z,20.63
2023-05-02T05:12:27.886Z,12.20
2023-05-02T05:15:26.019Z,12.00
2023-05-02T05:18:23.678Z,15.80
2023-05-02T05:21:20.855Z,14.43
2023-05-02T05:24:17.811Z,14.50
2023-05-02T05:27:15.236Z,16.60
2023-05-02T05:30:12.354Z,15.00
2023-05-02T05:33:09.235Z,12.82
2023-05-02T05:36:12.431Z,15.57
2023-05-02T05:39:10.209Z,13.38
2023-05-02T05:42:09.763Z,13.80
2023-05-02T05:45:07.500Z,15.35
2023-05-02T05:48:04.641Z,12.88
2023-05-02T05:51:05.911Z,14.77
2023-05-02T05:54:02.751Z,12.00
2023-05-02T05:56:59.570Z,13.55
2023-05-02T05:59:56.562Z,9.90
2023-05-02T06:02:53.861Z,13.13
2023-05-02T06:05:50.869Z,11.35
2023-05-02T06:08:47.695Z,12.13
2023-05-02T06:11:44.871Z,11.73
2023-05-02T06:14:41.715Z,15.73
2023-05-02T06:17:38.548Z,18.10
2023-05-02T06:20:37.052Z,12.68
2023-05-02T06:23:34.451Z,11.95
2023-05-02T06:26:31.324Z,12.23
2023-05-02T06:29:28.180Z,9.55
2023-05-02T06:32:25.050Z,10.45
2023-05-02T06:35:21.917Z,9.93
2023-05-02T06:38:19.064Z,9.57
2023-05-02T06:41:18.007Z,12.80
2023-05-02T06:44:15.282Z,11.07
2023-05-02T06:47:12.227Z,10.38
2023-05-02T06:50:09.832Z,9.65
2023-05-02T06:53:06.642Z,10.50
2023-05-02T06:56:03.636Z,12.43
2023-05-02T06:59:00.703Z,10.00
2023-05-02T07:01:57.507Z,10.30
2023-05-02T07:04:54.329Z,9.27
2023-05-02T07:07:51.299Z,10.38
2023-05-02T07:10:48.138Z,12.93
2023-05-02T07:13:45.024Z,9.98
2023-05-02T07:16:41.912Z,10.07
2023-05-02T07:19:38.816Z,11.45
2023-05-02T07:22:35.596Z,8.07
2023-05-02T07:25:32.455Z,10.13
2023-05-02T07:28:29.245Z,11.07
2023-05-02T07:31:26.066Z,12.00
2023-05-02T07:34:23.022Z,10.63
2023-05-02T07:37:21.138Z,9.77
2023-05-02T07:40:18.398Z,9.00
2023-05-02T07:43:16.019Z,8.07
2023-05-02T07:46:13.049Z,9.25
2023-05-02T07:49:09.931Z,9.88
2023-05-02T07:52:06.765Z,10.13
2023-05-02T07:55:03.799Z,8.82
2023-05-02T07:58:00.627Z,8.90
2023-05-02T08:00:58.004Z,7.03
2023-05-02T08:03:54.947Z,6.75
2023-05-02T08:06:51.992Z,10.07
2023-05-02T08:09:48.889Z,4.30
2023-05-02T08:12:45.706Z,6.85
2023-05-02T08:15:42.545Z,5.75
2023-05-02T08:18:39.453Z,8.80
2023-05-02T08:21:36.358Z,5.53
2023-05-02T08:24:33.144Z,7.28
2023-05-02T08:27:30.000Z,5.57
2023-05-02T08:30:26.868Z,7.97
2023-05-02T08:33:23.792Z,8.55
2023-05-02T08:36:20.643Z,6.88
2023-05-02T08:39:17.805Z,5.72
2023-05-02T08:42:14.724Z,8.65
2023-05-02T08:45:16.335Z,7.50
2023-05-02T08:48:16.579Z,9.73
2023-05-02T08:51:16.014Z,9.90
2023-05-02T08:54:18.971Z,7.45
2023-05-02T08:57:15.754Z,6.40
2023-05-02T09:00:13.614Z,7.70
2023-05-02T09:03:33.340Z,6.20
2023-05-02T09:06:30.340Z,7.35
2023-05-02T09:09:27.365Z,7.22
2023-05-02T09:12:27.329Z,8.35
2023-05-02T09:15:24.284Z,6.00
2023-05-02T09:18:21.669Z,8.38
2023-05-02T09:21:21.821Z,5.55
2023-05-02T09:24:21.410Z,4.72
2023-05-02T09:27:18.287Z,6.65
2023-05-02T09:30:24.440Z,6.13
2023-05-02T09:33:27.882Z,10.00
2023-05-02T09:36:24.753Z,7.20
2023-05-02T09:39:29.250Z,8.32
2023-05-02T09:42:32.723Z,7.80
2023-05-02T09:45:29.569Z,5.72
2023-05-02T09:48:28.668Z,10.45
2023-05-02T09:51:25.947Z,9.90
2023-05-02T09:54:39.006Z,7.75
2023-05-02T09:57:41.965Z,6.65
2023-05-02T10:00:45.629Z,7.28
2023-05-02T10:03:44.885Z,5.90
2023-05-02T10:06:45.984Z,7.45
2023-05-02T10:09:48.925Z,7.43
2023-05-02T10:12:52.819Z,9.23
2023-05-02T10:15:58.224Z,8.02
2023-05-02T10:19:09.419Z,8.65
2023-05-02T10:22:07.979Z,11.00
2023-05-02T10:25:05.551Z,7.38
2023-05-02T10:28:03.560Z,7.65
2023-05-02T10:31:02.236Z,9.75
2023-05-02T10:34:01.787Z,11.70
2023-05-02T10:37:01.508Z,7.68
2023-05-02T10:40:00.396Z,8.90
2023-05-02T10:42:58.173Z,7.13
2023-05-02T10:45:55.625Z,10.55
2023-05-02T10:49:12.861Z,7.88
2023-05-02T10:52:33.995Z,7.13
2023-05-02T10:55:30.808Z,6.97
2023-05-02T10:58:27.653Z,6.95
2023-05-02T11:01:36.351Z,8.32
2023-05-02T11:05:04.202Z,6.70
2023-05-02T11:08:21.225Z,7.63
2023-05-02T11:11:43.341Z,7.97
2023-05-02T11:14:40.505Z,7.40
2023-05-02T11:18:13.467Z,9.60
2023-05-02T11:21:29.144Z,9.18
2023-05-02T11:24:41.749Z,9.00
2023-05-02T11:27:38.722Z,6.53
2023-05-02T11:30:44.978Z,7.95
2023-05-02T11:33:41.832Z,6.57
2023-05-02T11:36:38.639Z,7.50
2023-05-02T11:39:36.081Z,9.30
2023-05-02T11:42:34.488Z,6.90
2023-05-02T11:45:39.157Z,7.43
2023-05-02T11:48:36.447Z,7.30
2023-05-02T11:51:33.585Z,7.90
2023-05-02T11:54:31.056Z,5.25
2023-05-02T11:57:27.966Z,6.50
2023-05-02T12:00:28.195Z,6.78
2023-05-02T12:03:33.663Z,6.00
2023-05-02T12:06:30.647Z,7.75
2023-05-02T12:09:27.503Z,8.25
2023-05-02T12:12:24.536Z,8.23
2023-05-02T12:15:21.453Z,7.50
2023-05-02T12:18:22.031Z,4.90
2023-05-02T12:21:19.610Z,4.65
2023-05-02T12:24:17.000Z,3.72
2023-05-02T12:27:15.941Z,2.85
2023-05-02T12:30:27.127Z,3.10
2023-05-02T12:33:23.968Z,3.03
2023-05-02T12:36:21.661Z,4.22
2023-05-02T12:39:18.652Z,3.53
2023-05-02T12:42:17.944Z,3.13
2023-05-02T12:45:18.512Z,2.38
2023-05-02T12:48:26.405Z,2.28
2023-05-02T12:51:24.231Z,1.98
2023-05-02T12:54:21.427Z,2.20
2023-05-02T12:57:25.816Z,4.07
2023-05-02T13:00:22.818Z,3.45
2023-05-02T13:03:19.766Z,3.55
2023-05-02T13:06:16.712Z,2.80
2023-05-02T13:09:13.565Z,3.42
2023-05-02T13:12:10.451Z,4.72
2023-05-02T13:15:08.703Z,3.80
2023-05-02T13:18:05.684Z,3.00
2023-05-02T13:21:02.570Z,5.30
2023-05-02T13:23:59.387Z,3.45
2023-05-02T13:26:56.214Z,5.53
2023-05-02T13:29:53.039Z,3.88
2023-05-02T13:32:49.885Z,2.55
2023-05-02T13:35:47.064Z,2.78
2023-05-02T13:38:44.447Z,2.53
2023-05-02T13:41:41.594Z,3.97
2023-05-02T13:44:38.531Z,2.33
2023-05-02T13:47:35.358Z,1.48
2023-05-02T13:50:32.161Z,1.42
2023-05-02T13:53:29.132Z,1.23
2023-05-02T13:56:26.145Z,1.50
2023-05-02T13:59:22.939Z,2.17
2023-05-02T14:02:19.807Z,1.55
2023-05-02T14:05:16.707Z,2.00
2023-05-02T14:08:18.108Z,2.33
2023-05-02T14:11:15.002Z,2.58
2023-05-02T14:14:12.550Z,5.88
2023-05-02T14:17:09.372Z,1.95
2023-05-02T14:20:07.878Z,2.08
2023-05-02T14:23:06.243Z,3.00
2023-05-02T14:26:04.320Z,1.95
2023-05-02T14:29:01.619Z,2.33
2023-05-02T14:31:58.514Z,1.95
2023-05-02T14:34:55.387Z,3.10
2023-05-02T14:37:52.193Z,1.77
2023-05-02T14:40:48.994Z,2.33
2023-05-02T14:43:45.842Z,2.40
2023-05-02T14:46:42.683Z,2.38
2023-05-02T14:49:39.494Z,2.22
2023-05-02T14:52:36.301Z,2.97
2023-05-02T14:55:40.316Z,1.20
2023-05-02T14:58:37.240Z,2.42
2023-05-02T15:01:34.105Z,1.73
2023-05-02T15:04:31.302Z,2.13
2023-05-02T15:07:28.772Z,2.45
2023-05-02T15:10:25.684Z,7.75
2023-05-02T15:13:23.469Z,7.90
2023-05-02T15:16:20.368Z,2.42
2023-05-02T15:19:17.203Z,2.55
2023-05-02T15:22:15.856Z,2.78
2023-05-02T15:25:12.648Z,5.10
2023-05-02T15:28:09.454Z,3.25
2023-05-02T15:31:06.263Z,3.70
2023-05-02T15:34:03.662Z,3.53
2023-05-02T15:37:01.322Z,8.98
2023-05-02T15:39:58.137Z,2.53
2023-05-02T15:42:55.430Z,5.72
2023-05-02T15:45:58.399Z,6.20
2023-05-02T15:48:55.316Z,3.13
2023-05-02T15:51:52.313Z,5.30
2023-05-02T15:54:51.573Z,7.05
2023-05-02T15:57:51.680Z,5.47
2023-05-02T16:00:48.549Z,3.08
2023-05-02T16:03:45.472Z,4.57
2023-05-02T16:06:42.609Z,7.63
2023-05-02T16:09:39.813Z,5.97
2023-05-02T16:12:36.717Z,4.15
2023-05-02T16:15:33.534Z,5.22
2023-05-02T16:18:31.199Z,4.80
2023-05-02T16:21:28.072Z,4.72
2023-05-02T16:24:24.945Z,6.00
2023-05-02T16:27:21.839Z,4.55
2023-05-02T16:30:18.842Z,4.25
2023-05-02T16:33:16.172Z,4.47
2023-05-02T16:36:14.568Z,4.65
2023-05-02T16:39:11.366Z,5.80
2023-05-02T16:42:08.176Z,7.57
2023-05-02T16:45:06.525Z,5.65
2023-05-02T16:48:04.498Z,6.07
2023-05-02T16:51:03.986Z,7.82
2023-05-02T16:54:01.282Z,6.90
2023-05-02T16:57:02.447Z,8.35
2023-05-02T16:59:59.555Z,7.25
2023-05-02T17:02:57.161Z,9.10
2023-05-02T17:05:54.181Z,13.18
2023-05-02T17:08:51.082Z,8.57
2023-05-02T17:11:47.897Z,11.65
2023-05-02T17:14:44.704Z,10.88
2023-05-02T17:17:42.758Z,10.80
2023-05-02T17:20:39.794Z,11.20
2023-05-02T17:23:36.606Z,11.73
2023-05-02T17:26:33.419Z,14.07
2023-05-02T17:29:30.556Z,13.98
2023-05-02T17:32:27.609Z,11.10
2023-05-02T17:35:24.541Z,14.45
2023-05-02T17:38:21.462Z,12.90
2023-05-02T17:41:18.286Z,15.00
2023-05-02T17:44:16.343Z,16.38
2023-05-02T17:47:13.217Z,15.10
2023-05-02T17:50:10.690Z,14.20
2023-05-02T17:53:08.185Z,17.58
2023-05-02T17:56:06.379Z,14.38
2023-05-02T17:59:04.977Z,16.80
2023-05-02T18:02:02.094Z,14.05
2023-05-02T18:05:01.471Z,12.82
2023-05-02T18:07:58.837Z,12.65
2023-05-02T18:10:55.977Z,15.70
2023-05-02T18:13:52.990Z,18.27
2023-05-02T18:16:49.830Z,15.02
2023-05-02T18:19:49.209Z,15.05
2023-05-02T18:22:46.179Z,15.30
2023-05-02T18:25:43.610Z,12.38
2023-05-02T18:28:42.694Z,16.90
2023-05-02T18:31:41.554Z,17.45
2023-05-02T18:34:39.158Z,14.82
2023-05-02T18:37:36.713Z,13.45
2023-05-02T18:40:33.493Z,10.52
2023-05-02T18:43:30.311Z,15.32
2023-05-02T18:46:27.158Z,21.42
2023-05-02T18:49:26.186Z,15.68
2023-05-02T18:52:23.072Z,9.52
2023-05-02T18:55:22.770Z,11.80
2023-05-02T18:58:21.586Z,12.68
2023-05-02T19:01:20.179Z,12.93
2023-05-02T19:04:17.031Z,12.75
2023-05-02T19:07:14.464Z,18.30
2023-05-02T19:10:11.302Z,14.77
2023-05-02T19:13:08.095Z,12.93
2023-05-02T19:16:09.285Z,14.30
2023-05-02T19:19:07.511Z,13.00
2023-05-02T19:22:04.332Z,14.85
2023-05-02T19:25:01.444Z,16.02
2023-05-02T19:27:58.577Z,13.38
2023-05-02T19:30:55.443Z,10.50
2023-05-02T19:33:52.314Z,12.43
2023-05-02T19:36:49.174Z,14.02
2023-05-02T19:39:45.984Z,13.32
2023-05-02T19:42:42.822Z,16.25
2023-05-02T19:45:39.648Z,12.75
2023-05-02T19:48:36.706Z,14.20
2023-05-02T19:51:35.221Z,12.43
2023-05-02T19:54:33.247Z,15.20
2023-05-02T19:57:30.098Z,12.48
2023-05-02T20:00:27.084Z,10.40
2023-05-02T20:03:25.301Z,8.73
2023-05-02T20:06:22.410Z,14.05
2023-05-02T20:09:19.253Z,12.55
2023-05-02T20:12:16.242Z,9.80
2023-05-02T20:15:16.828Z,12.93
2023-05-02T20:18:13.733Z,12.38
2023-05-02T20:21:10.647Z,8.20
2023-05-02T20:24:07.896Z,10.55
2023-05-02T20:27:04.813Z,12.93
2023-05-02T20:30:01.786Z,12.02
2023-05-02T20:33:10.548Z,8.45
2023-05-02T20:36:12.639Z,14.68
2023-05-02T20:39:10.247Z,12.13
2023-05-02T20:42:09.449Z,15.85
2023-05-02T20:45:07.307Z,13.55
2023-05-02T20:48:04.384Z,11.18
2023-05-02T20:51:01.318Z,10.60
2023-05-02T20:53:59.214Z,13.38
2023-05-02T20:56:56.008Z,11.95
2023-05-02T20:59:53.366Z,10.30
2023-05-02T21:02:50.338Z,11.25
2023-05-02T21:05:55.443Z,8.95
2023-05-02T21:08:55.073Z,7.65
2023-05-02T21:11:51.876Z,10.13
2023-05-02T21:14:48.730Z,10.88
2023-05-02T21:17:45.607Z,9.50
2023-05-02T21:20:42.450Z,8.95
2023-05-02T21:23:39.363Z,9.32
2023-05-02T21:26:36.378Z,9.60
2023-05-02T21:29:33.170Z,8.23
2023-05-02T21:32:29.991Z,7.63
2023-05-02T21:35:27.423Z,9.07
2023-05-02T21:38:25.946Z,8.30
2023-05-02T21:41:22.765Z,8.80
2023-05-02T21:44:19.689Z,6.50
2023-05-02T21:47:16.680Z,6.47
2023-05-02T21:50:13.509Z,5.50
2023-05-02T21:53:10.814Z,6.68
2023-05-02T21:56:08.359Z,4.97
2023-05-02T21:59:05.178Z,8.98
2023-05-02T22:02:02.156Z,7.97
2023-05-02T22:04:59.029Z,10.02
2023-05-02T22:07:56.228Z,7.68
2023-05-02T22:10:54.086Z,7.47
2023-05-02T22:13:50.936Z,6.10
2023-05-02T22:16:47.778Z,5.43
2023-05-02T22:19:49.550Z,7.50
2023-05-02T22:22:46.406Z,8.82
2023-05-02T22:25:46.296Z,66.57
2023-05-02T22:28:43.095Z,44.23
2023-05-02T22:31:39.958Z,11.93
2023-05-02T22:34:36.861Z,8.02
2023-05-02T22:37:33.742Z,7.13
2023-05-02T22:40:31.503Z,7.65
2023-05-02T22:43:28.305Z,10.43
2023-05-02T22:46:25.178Z,7.07
2023-05-02T22:49:22.110Z,7.60
2023-05-02T22:52:20.606Z,8.23
2023-05-02T22:55:17.727Z,7.05
2023-05-02T22:58:14.536Z,6.50
2023-05-02T23:01:11.666Z,5.95
2023-05-02T23:04:09.244Z,10.10
2023-05-02T23:07:06.099Z,8.45
2023-05-02T23:10:03.079Z,7.95
2023-05-02T23:13:00.284Z,7.35
2023-05-02T23:15:57.173Z,10.25
2023-05-02T23:18:54.026Z,6.32
2023-05-02T23:21:50.838Z,6.95
2023-05-02T23:24:47.942Z,8.25
2023-05-02T23:27:44.746Z,7.30
2023-05-02T23:30:41.662Z,6.20
2023-05-02T23:33:38.856Z,7.18
2023-05-02T23:36:35.925Z,5.30
2023-05-02T23:39:33.356Z,10.02
2023-05-02T23:42:30.571Z,9.57
2023-05-02T23:45:27.400Z,8.73
2023-05-02T23:48:24.193Z,7.53
2023-05-02T23:51:21.019Z,7.85
2023-05-02T23:54:17.940Z,10.48
2023-05-02T23:57:14.798Z,6.55
